logo dgac
Domingo 23 de Septiembre del 2018
Buscar por aerodromo o helipuerto
Ingrese nombre de aeródromo, localidad o designador OACI:
TAF: TAF SCBA 231614Z 2318/2418 31020KT 9999 SCT050 BKN100 TX08/2318Z TNM03/2410Z BECMG 2400/2402 30010KT SCT040 BECMG 2410/2412 30005KT FEW030 SCT060 BECMG 2415/2418 BKN060
TAF del 23/09/2018 a las 16:14 UTC
Período de validez: desde el 23 a las 18:00 UTC hasta el 24 a las 18:00 UTC
Viento: dirección 310 grados, velocidad 20 nudos
Visibilidad: 10 km o más
Nubes: Nubosidad parcial a 5000 pies sobre el nivel del aeródromo
Nubes: Nublado a 10000 pies sobre el nivel del aeródromo
Temperatura máxima: 8ºC el 23 a las 18:00 UTC
Nan: TNM03/2410Z
Se espera un cambio entre las 00:00 UTC del 24 y las 02:00 UTC del 24, :
Viento: dirección 300 grados, velocidad 10 nudos
Nubes: Nubosidad parcial a 4000 pies sobre el nivel del aeródromo
Se espera un cambio entre las 10:00 UTC del 24 y las 12:00 UTC del 24, :
Viento: dirección 300 grados, velocidad 5 nudos
Nubes: Escasa nubosidad a 3000 pies sobre el nivel del aeródromo
Nubes: Nubosidad parcial a 6000 pies sobre el nivel del aeródromo
Se espera un cambio entre las 15:00 UTC del 24 y las 18:00 UTC del 24, :
Nubes: Nublado a 6000 pies sobre el nivel del aeródromo